North Powder, Oregon
Current Conditions -  °F | °C
As of 9:53 AM on Friday 28 Nov 2014 (Local Time) from KBKE Reporting Station
Broken Clouds Broken Clouds  
Wind Chill: 45°   Ceiling: 9500
Heat Index: 49°   Visibility: 10mi
Dew Point: 36°   Wind: 8mph
Humidity: 61%   Direction: 120°ESE
Pressure: 29.77"   Gusts: NA
Location:  45.03°N, 117.92°W
Report Text: KBKE 281753Z AUTO 12007KT 10SM FEW055 BKN095 BKN110 09/02 A2977 RMK AO2 PK WND 18031/1720 SLP078 60000 T00940022 10106 20056 53004
Loading
Personal Weather Stations






























Interactive Weather Map New forecast layout! Learn more

10-Day Weather Forecast

Advertisements
Track Severe Weather on mobile